Time;durP1;ratioP1;P1;durP2;ratioP2;P2;SDS_P1;SDS_P2;PMS_P1;PMS_P2;Temp;Humidity;BMP_temperature;BMP_pressure;BME280_temperature;BME280_humidity;BME280_pressure;Samples;Min_cycle;Max_cycle;Signal;HPM_P1;HPM_P2
2021/07/07 00:00:16;;;;;;;;;;;22.90;60.50;;;;;;3087961;28;19950;-87
2021/07/07 00:01:47;;;;;;;;;;;22.90;60.30;;;;;;3088475;28;19984;-88
2021/07/07 00:03:18;;;;;;;;;;;22.90;60.30;;;;;;3088498;28;19980;-85
2021/07/07 00:04:51;;;;;;;;;;;22.90;60.40;;;;;;3088645;28;19917;-85
2021/07/07 00:06:22;;;;;;;;;;;22.90;60.70;;;;;;3088410;28;19973;-85
2021/07/07 00:07:54;;;;;;;;;;;22.90;60.80;;;;;;3088632;28;20340;-86
2021/07/07 00:09:24;;;;;;;;;;;22.80;60.20;;;;;;3088481;28;19922;-85
2021/07/07 00:10:56;;;;;;;;;;;22.80;60.20;;;;;;3088354;28;20425;-87
2021/07/07 00:12:27;;;;;;;;;;;22.80;60.30;;;;;;3088406;28;19968;-86
2021/07/07 00:13:59;;;;;;;;;;;22.80;60.60;;;;;;3088521;28;19965;-85
2021/07/07 00:15:32;;;;;;;;;;;22.80;60.00;;;;;;3088665;28;20367;-86
2021/07/07 00:17:03;;;;;;;;;;;22.80;60.10;;;;;;3088687;28;19929;-85
2021/07/07 00:18:34;;;;;;;;;;;22.80;60.40;;;;;;3088147;28;19918;-86
2021/07/07 00:20:07;;;;;;;;;;;22.80;60.50;;;;;;3088456;28;19929;-85
2021/07/07 00:21:38;;;;;;;;;;;22.80;60.70;;;;;;3088260;28;19922;-86
2021/07/07 00:23:10;;;;;;;;;;;22.80;61.50;;;;;;3088405;28;20393;-85
2021/07/07 00:24:41;;;;;;;;;;;22.80;60.70;;;;;;3088373;28;19929;-86
2021/07/07 00:26:13;;;;;;;;;;;22.80;60.70;;;;;;3087809;28;20353;-85
2021/07/07 00:27:43;;;;;;;;;;;22.80;61.00;;;;;;3089199;28;19922;-86
2021/07/07 00:29:15;;;;;;;;;;;22.80;60.80;;;;;;3088402;28;20267;-86
2021/07/07 00:30:46;;;;;;;;;;;22.80;60.60;;;;;;3088211;28;19957;-86
2021/07/07 00:32:18;;;;;;;;;;;22.80;60.90;;;;;;3088182;28;19929;-86
2021/07/07 00:33:50;;;;;;;;;;;22.80;60.50;;;;;;3088451;28;19926;-85
2021/07/07 00:35:23;;;;;;;;;;;22.80;60.70;;;;;;3088124;28;19969;-88
2021/07/07 00:36:54;;;;;;;;;;;22.80;60.50;;;;;;3088162;28;19930;-85
2021/07/07 00:38:26;;;;;;;;;;;22.80;60.60;;;;;;3088341;28;19937;-87
2021/07/07 00:39:57;;;;;;;;;;;22.70;60.80;;;;;;3088344;28;19922;-86
2021/07/07 00:41:29;;;;;;;;;;;22.80;61.30;;;;;;3087950;28;19929;-85
2021/07/07 00:43:00;;;;;;;;;;;22.80;60.20;;;;;;3088136;28;19995;-85
2021/07/07 00:44:31;;;;;;;;;;;22.70;60.10;;;;;;3088614;28;19948;-85
2021/07/07 00:46:02;;;;;;;;;;;22.70;60.20;;;;;;3088142;28;19926;-86
2021/07/07 00:47:33;;;;;;;;;;;22.70;61.00;;;;;;3088033;28;19953;-86
2021/07/07 00:49:05;;;;;;;;;;;22.80;61.20;;;;;;3088026;28;19917;-85
2021/07/07 00:50:37;;;;;;;;;;;22.70;60.00;;;;;;3088225;28;19934;-85
2021/07/07 00:52:09;;;;;;;;;;;22.70;59.90;;;;;;3088139;28;19922;-85
2021/07/07 00:53:41;;;;;;;;;;;22.70;59.60;;;;;;3088193;28;20355;-86
2021/07/07 00:55:12;;;;;;;;;;;22.70;59.90;;;;;;3088221;28;19966;-87
2021/07/07 00:56:44;;;;;;;;;;;22.70;60.00;;;;;;3088222;28;19918;-86
2021/07/07 00:58:15;;;;;;;;;;;22.70;59.80;;;;;;3088118;28;19922;-86
2021/07/07 00:59:46;;;;;;;;;;;22.70;59.90;;;;;;3088280;28;19949;-86
2021/07/07 01:01:18;;;;;;;;;;;22.70;59.70;;;;;;3087947;28;20302;-86
2021/07/07 01:02:49;;;;;;;;;;;22.70;60.20;;;;;;3087875;28;19961;-87
2021/07/07 01:04:20;;;;;;;;;;;22.70;59.60;;;;;;3087786;28;20436;-85
2021/07/07 01:05:53;;;;;;;;;;;22.60;60.70;;;;;;3087744;28;19967;-85
2021/07/07 01:07:24;;;;;;;;;;;22.60;59.70;;;;;;3088261;28;19965;-85
2021/07/07 01:08:56;;;;;;;;;;;22.70;59.40;;;;;;3088088;28;20378;-86
2021/07/07 01:10:28;;;;;;;;;;;22.60;59.90;;;;;;3087592;28;19963;-88
2021/07/07 01:11:59;;;;;;;;;;;22.60;60.50;;;;;;3088063;28;20012;-86
2021/07/07 01:13:31;;;;;;;;;;;22.60;59.80;;;;;;3088060;28;19922;-86
2021/07/07 01:15:03;;;;;;;;;;;22.60;59.80;;;;;;3087901;28;19934;-85
2021/07/07 01:16:34;;;;;;;;;;;22.60;60.20;;;;;;3087830;28;19922;-86
2021/07/07 01:18:06;;;;;;;;;;;22.60;59.80;;;;;;3087941;28;20405;-89
2021/07/07 01:19:37;;;;;;;;;;;22.60;59.60;;;;;;3087839;28;19968;-85
2021/07/07 01:21:10;;;;;;;;;;;22.60;59.50;;;;;;3087653;28;19957;-86
2021/07/07 01:22:43;;;;;;;;;;;22.60;60.00;;;;;;3087451;28;19972;-85
2021/07/07 01:24:15;;;;;;;;;;;22.60;60.20;;;;;;3087893;28;19929;-86
2021/07/07 01:25:46;;;;;;;;;;;22.60;60.40;;;;;;3087968;28;19929;-87
2021/07/07 01:27:18;;;;;;;;;;;22.60;60.00;;;;;;3088496;28;19972;-87
2021/07/07 01:28:49;;;;;;;;;;;22.60;59.90;;;;;;3087815;28;19922;-85
2021/07/07 01:30:21;;;;;;;;;;;22.60;60.10;;;;;;3087587;28;19972;-86
2021/07/07 01:31:53;;;;;;;;;;;22.60;59.80;;;;;;3087495;28;19989;-85
2021/07/07 01:33:23;;;;;;;;;;;22.60;59.80;;;;;;3087807;28;20007;-85
2021/07/07 01:34:55;;;;;;;;;;;22.60;60.20;;;;;;3087534;28;19925;-85
2021/07/07 01:36:26;;;;;;;;;;;22.60;60.20;;;;;;3087624;28;19976;-85
2021/07/07 01:37:58;;;;;;;;;;;22.60;60.30;;;;;;3087046;28;20397;-86
2021/07/07 01:39:30;;;;;;;;;;;22.60;60.00;;;;;;3087371;28;19926;-86
2021/07/07 01:41:02;;;;;;;;;;;22.60;61.00;;;;;;3087559;28;20434;-85
2021/07/07 01:42:33;;;;;;;;;;;22.60;59.90;;;;;;3087489;28;19921;-85
2021/07/07 01:44:05;;;;;;;;;;;22.60;60.00;;;;;;3087574;28;20452;-85
2021/07/07 01:45:37;;;;;;;;;;;22.60;60.00;;;;;;3087477;28;19922;-85
2021/07/07 01:47:09;;;;;;;;;;;22.60;60.20;;;;;;3087451;28;20376;-86
2021/07/07 01:48:40;;;;;;;;;;;22.60;60.00;;;;;;3087356;28;19922;-87
2021/07/07 01:50:11;;;;;;;;;;;22.60;60.00;;;;;;3087268;28;19976;-86
2021/07/07 01:51:43;;;;;;;;;;;22.60;59.90;;;;;;3087523;28;20097;-87
2021/07/07 01:53:15;;;;;;;;;;;22.50;60.20;;;;;;3087565;28;20057;-88
2021/07/07 01:54:47;;;;;;;;;;;22.60;59.90;;;;;;3087468;28;20371;-86
2021/07/07 01:58:27;;;;;;;;;;;22.50;59.80;;;;;;3086407;28;20370;-86
2021/07/07 01:59:58;;;;;;;;;;;22.50;59.80;;;;;;3095394;28;20421;-85
2021/07/07 02:01:30;;;;;;;;;;;22.50;59.90;;;;;;3092712;28;19925;-85
2021/07/07 02:03:01;;;;;;;;;;;22.50;60.00;;;;;;3099155;28;19921;-86
2021/07/07 02:04:33;;;;;;;;;;;22.50;60.30;;;;;;3099395;28;19926;-88
2021/07/07 02:06:04;;;;;;;;;;;22.50;60.20;;;;;;3095506;28;19957;-85
2021/07/07 02:07:35;;;;;;;;;;;22.50;60.20;;;;;;3087261;28;19957;-85
2021/07/07 02:09:08;;;;;;;;;;;22.50;60.10;;;;;;3087392;28;19918;-85
2021/07/07 02:10:38;;;;;;;;;;;22.50;60.20;;;;;;3086757;28;19922;-86
2021/07/07 02:12:10;;;;;;;;;;;22.50;60.10;;;;;;3087291;28;19918;-85
2021/07/07 02:13:41;;;;;;;;;;;22.50;59.70;;;;;;3087292;28;19929;-88
2021/07/07 02:17:21;;;;;;;;;;;22.50;59.80;;;;;;3090516;28;19910;-86
2021/07/07 02:18:52;;;;;;;;;;;22.50;59.70;;;;;;3091037;28;20391;-86
2021/07/07 02:20:23;;;;;;;;;;;22.50;59.60;;;;;;3099378;28;19922;-88
2021/07/07 02:21:55;;;;;;;;;;;22.40;61.00;;;;;;3087888;28;19918;-86
2021/07/07 02:23:27;;;;;;;;;;;22.40;60.90;;;;;;3087256;28;19922;-88
2021/07/07 02:24:59;;;;;;;;;;;22.40;60.30;;;;;;3087506;28;19922;-86
2021/07/07 02:26:30;;;;;;;;;;;22.50;60.00;;;;;;3087322;28;19922;-88
2021/07/07 02:28:01;;;;;;;;;;;22.40;59.80;;;;;;3087152;28;19926;-85
2021/07/07 02:29:34;;;;;;;;;;;22.40;60.00;;;;;;3087100;28;20366;-87
2021/07/07 02:31:05;;;;;;;;;;;22.40;59.90;;;;;;3086652;28;19926;-87
2021/07/07 02:32:36;;;;;;;;;;;22.50;60.30;;;;;;3087021;28;20405;-86
2021/07/07 02:34:08;;;;;;;;;;;22.40;60.20;;;;;;3087162;28;19925;-86
2021/07/07 02:35:40;;;;;;;;;;;22.40;60.20;;;;;;3087157;28;19922;-86
2021/07/07 02:37:11;;;;;;;;;;;22.50;59.90;;;;;;3087358;28;19922;-86
2021/07/07 02:38:43;;;;;;;;;;;22.50;60.30;;;;;;3086684;28;19926;-86
2021/07/07 02:40:15;;;;;;;;;;;22.40;59.90;;;;;;3083136;28;19922;-86
2021/07/07 02:41:48;;;;;;;;;;;22.40;59.60;;;;;;3086479;28;20390;-86
2021/07/07 02:43:18;;;;;;;;;;;22.40;59.50;;;;;;3087195;28;19922;-87
2021/07/07 02:44:50;;;;;;;;;;;22.40;59.70;;;;;;3087055;28;19925;-86
2021/07/07 02:46:21;;;;;;;;;;;22.40;59.90;;;;;;3086968;28;20080;-86
2021/07/07 02:47:52;;;;;;;;;;;22.40;59.70;;;;;;3087128;28;20286;-85
2021/07/07 02:49:25;;;;;;;;;;;22.40;59.80;;;;;;3089118;28;19922;-86
2021/07/07 02:50:55;;;;;;;;;;;22.40;59.40;;;;;;3089113;28;19973;-86
2021/07/07 02:52:27;;;;;;;;;;;22.40;59.50;;;;;;3089387;28;19918;-86
2021/07/07 02:53:58;;;;;;;;;;;22.40;59.30;;;;;;3089644;28;19922;-86
2021/07/07 02:55:30;;;;;;;;;;;22.40;59.50;;;;;;3089376;28;19925;-86
2021/07/07 02:57:02;;;;;;;;;;;22.40;59.40;;;;;;3089311;28;19922;-85
2021/07/07 02:58:32;;;;;;;;;;;22.40;59.60;;;;;;3089431;28;19930;-85
2021/07/07 03:00:04;;;;;;;;;;;22.40;60.10;;;;;;3089528;28;19925;-83
2021/07/07 03:01:36;;;;;;;;;;;22.40;60.00;;;;;;3088787;28;19922;-85
2021/07/07 03:03:07;;;;;;;;;;;22.40;60.00;;;;;;3089240;28;19929;-86
2021/07/07 03:04:38;;;;;;;;;;;22.40;59.80;;;;;;3089579;28;19929;-85
2021/07/07 03:06:10;;;;;;;;;;;22.40;59.80;;;;;;3084598;28;19919;-85
2021/07/07 03:07:41;;;;;;;;;;;22.40;59.90;;;;;;3077264;29;20280;-85
2021/07/07 03:09:12;;;;;;;;;;;22.40;59.60;;;;;;3077346;29;19993;-85
2021/07/07 03:10:44;;;;;;;;;;;22.40;59.60;;;;;;3077335;28;19929;-85
2021/07/07 03:12:16;;;;;;;;;;;22.40;59.90;;;;;;3089216;28;19922;-85
2021/07/07 03:13:47;;;;;;;;;;;22.40;59.90;;;;;;3089129;28;19922;-86
2021/07/07 03:15:18;;;;;;;;;;;22.40;59.70;;;;;;3089482;28;20087;-85
2021/07/07 03:16:49;;;;;;;;;;;22.40;59.70;;;;;;3089248;28;20278;-85
2021/07/07 03:18:21;;;;;;;;;;;22.40;59.80;;;;;;3089110;28;19922;-85
2021/07/07 03:19:52;;;;;;;;;;;22.40;60.10;;;;;;3089135;28;19929;-86
2021/07/07 03:21:23;;;;;;;;;;;22.40;60.60;;;;;;3089008;28;20375;-86
2021/07/07 03:22:54;;;;;;;;;;;22.40;60.20;;;;;;3089480;28;20282;-86
2021/07/07 03:24:25;;;;;;;;;;;22.40;60.20;;;;;;3089233;28;19918;-86
2021/07/07 03:25:58;;;;;;;;;;;22.40;60.50;;;;;;3089238;28;19929;-86
2021/07/07 03:27:29;;;;;;;;;;;22.40;60.40;;;;;;3090026;28;19925;-86
2021/07/07 03:29:00;;;;;;;;;;;22.40;60.50;;;;;;3089308;28;19918;-87
2021/07/07 03:30:32;;;;;;;;;;;22.40;60.30;;;;;;3088858;28;19929;-86
2021/07/07 03:32:04;;;;;;;;;;;22.40;60.20;;;;;;3089002;28;20382;-86
2021/07/07 03:33:35;;;;;;;;;;;22.40;61.00;;;;;;3089077;28;19945;-87
2021/07/07 03:35:06;;;;;;;;;;;22.50;60.30;;;;;;3089185;28;19929;-86
2021/07/07 03:36:38;;;;;;;;;;;22.40;60.40;;;;;;3088995;28;19996;-86
2021/07/07 03:38:09;;;;;;;;;;;22.40;60.30;;;;;;3089023;28;19929;-86
2021/07/07 03:39:40;;;;;;;;;;;22.40;60.50;;;;;;3089007;28;19945;-87
2021/07/07 03:41:13;;;;;;;;;;;22.40;60.40;;;;;;3088418;28;19918;-86
2021/07/07 03:42:43;;;;;;;;;;;22.40;60.20;;;;;;3088894;28;19929;-86
2021/07/07 03:44:15;;;;;;;;;;;22.40;60.30;;;;;;3089096;28;20290;-87
2021/07/07 03:45:46;;;;;;;;;;;22.40;60.20;;;;;;3089036;28;19926;-85
2021/07/07 03:47:17;;;;;;;;;;;22.40;60.20;;;;;;3089052;28;19922;-85
2021/07/07 03:48:48;;;;;;;;;;;22.40;60.30;;;;;;3089034;28;20370;-86
2021/07/07 03:50:19;;;;;;;;;;;22.40;60.30;;;;;;3088950;28;19922;-85
2021/07/07 03:51:51;;;;;;;;;;;22.40;60.20;;;;;;3088793;28;20278;-85
2021/07/07 03:53:22;;;;;;;;;;;22.40;60.10;;;;;;3088913;28;19921;-85
2021/07/07 03:54:53;;;;;;;;;;;22.30;60.10;;;;;;3088861;28;19929;-86
2021/07/07 03:56:26;;;;;;;;;;;22.30;59.90;;;;;;3088962;28;19918;-86
2021/07/07 03:57:56;;;;;;;;;;;22.40;60.10;;;;;;3088305;28;19929;-86
2021/07/07 03:59:28;;;;;;;;;;;22.40;60.10;;;;;;3088609;28;20294;-86
2021/07/07 04:00:59;;;;;;;;;;;22.40;60.00;;;;;;3087645;28;19929;-85
2021/07/07 04:04:06;;;;;;;;;;;22.40;59.80;;;;;;3124328;23;19922;-84
2021/07/07 04:05:38;;;;;;;;;;;22.40;59.80;;;;;;3102955;28;19945;-84
2021/07/07 04:07:08;;;;;;;;;;;22.40;59.90;;;;;;3102674;28;19932;-84
2021/07/07 04:08:40;;;;;;;;;;;22.40;60.00;;;;;;3102242;28;19921;-84
2021/07/07 04:10:11;;;;;;;;;;;22.30;59.80;;;;;;3103002;28;19921;-83
2021/07/07 04:11:44;;;;;;;;;;;22.40;60.00;;;;;;3102463;28;19933;-83
2021/07/07 04:13:16;;;;;;;;;;;22.30;60.00;;;;;;3102637;28;19922;-84
2021/07/07 04:14:46;;;;;;;;;;;22.30;60.00;;;;;;3102973;28;19929;-84
2021/07/07 04:16:18;;;;;;;;;;;22.30;60.00;;;;;;3102681;28;19918;-84
2021/07/07 04:17:50;;;;;;;;;;;22.40;60.00;;;;;;3102442;28;19925;-84
2021/07/07 04:19:20;;;;;;;;;;;22.30;60.20;;;;;;3102693;28;20289;-83
2021/07/07 04:20:52;;;;;;;;;;;22.40;60.80;;;;;;3102343;28;19918;-84
2021/07/07 04:22:22;;;;;;;;;;;22.40;60.60;;;;;;3102459;28;19922;-83
2021/07/07 04:23:54;;;;;;;;;;;22.40;60.50;;;;;;3102587;28;19922;-84
2021/07/07 04:25:25;;;;;;;;;;;22.40;60.40;;;;;;3102989;28;19928;-84
2021/07/07 04:26:58;;;;;;;;;;;22.30;60.40;;;;;;3102345;28;20305;-84
2021/07/07 04:28:30;;;;;;;;;;;22.40;60.50;;;;;;3103134;28;19926;-83
2021/07/07 04:30:00;;;;;;;;;;;22.40;60.40;;;;;;3102394;28;19922;-84
2021/07/07 04:31:32;;;;;;;;;;;22.40;60.40;;;;;;3102154;28;20267;-83
2021/07/07 04:33:04;;;;;;;;;;;22.30;60.30;;;;;;3102812;28;20266;-83
2021/07/07 04:36:24;;;;;;;;;;;22.30;60.00;;;;;;3088280;28;19976;-84
2021/07/07 04:37:56;;;;;;;;;;;22.30;60.10;;;;;;3090244;28;19937;-84
2021/07/07 04:39:27;;;;;;;;;;;22.30;60.20;;;;;;3108969;28;19929;-84
2021/07/07 04:40:59;;;;;;;;;;;22.30;60.30;;;;;;3102120;28;19922;-83
2021/07/07 04:42:32;;;;;;;;;;;22.30;60.30;;;;;;3102474;28;19921;-83
2021/07/07 04:44:03;;;;;;;;;;;22.30;60.30;;;;;;3102019;28;19921;-83
2021/07/07 04:45:35;;;;;;;;;;;22.30;60.50;;;;;;3102304;28;19964;-83
2021/07/07 04:47:06;;;;;;;;;;;22.30;60.50;;;;;;3102068;28;19945;-84
2021/07/07 04:48:38;;;;;;;;;;;22.40;60.60;;;;;;3102732;28;19929;-84
2021/07/07 04:50:10;;;;;;;;;;;22.40;60.60;;;;;;3101850;28;19921;-81
2021/07/07 04:51:40;;;;;;;;;;;22.40;60.50;;;;;;3102330;28;19953;-83
2021/07/07 04:53:12;;;;;;;;;;;22.40;60.50;;;;;;3101938;28;19924;-83
2021/07/07 04:54:43;;;;;;;;;;;22.40;60.50;;;;;;3102432;28;19964;-83
2021/07/07 04:56:15;;;;;;;;;;;22.40;60.50;;;;;;3101563;28;19964;-82
2021/07/07 04:57:48;;;;;;;;;;;22.40;60.70;;;;;;3098964;28;19949;-83
2021/07/07 04:59:18;;;;;;;;;;;22.40;60.80;;;;;;3093267;28;19991;-82
2021/07/07 05:00:50;;;;;;;;;;;22.60;60.90;;;;;;3094352;28;19921;-83
2021/07/07 05:02:21;;;;;;;;;;;22.60;60.90;;;;;;3096904;28;20344;-83
2021/07/07 05:03:53;;;;;;;;;;;22.50;59.00;;;;;;3102336;28;19921;-82
2021/07/07 05:05:23;;;;;;;;;;;22.40;58.20;;;;;;3096970;28;20382;-83
2021/07/07 05:06:55;;;;;;;;;;;22.30;58.30;;;;;;3094611;28;19924;-83
2021/07/07 05:08:25;;;;;;;;;;;22.30;58.80;;;;;;3095020;28;19922;-83
2021/07/07 05:09:57;;;;;;;;;;;22.20;59.00;;;;;;3099603;28;20285;-83
2021/07/07 05:11:28;;;;;;;;;;;22.20;59.10;;;;;;3100470;28;19922;-82
2021/07/07 05:13:02;;;;;;;;;;;22.10;59.30;;;;;;3103912;28;19922;-84
2021/07/07 05:14:34;;;;;;;;;;;22.10;59.30;;;;;;3100338;28;19944;-84
2021/07/07 05:16:04;;;;;;;;;;;22.10;59.50;;;;;;3100846;28;19929;-83
2021/07/07 05:17:36;;;;;;;;;;;22.10;59.60;;;;;;3097707;28;20309;-83
2021/07/07 05:19:08;;;;;;;;;;;22.10;60.50;;;;;;3104862;28;19928;-83
2021/07/07 05:20:39;;;;;;;;;;;22.10;59.60;;;;;;3108119;28;19925;-84
2021/07/07 05:22:11;;;;;;;;;;;22.00;60.40;;;;;;3101999;28;19928;-84
2021/07/07 05:23:42;;;;;;;;;;;22.10;60.50;;;;;;3101038;28;19922;-82
2021/07/07 05:25:13;;;;;;;;;;;22.10;60.10;;;;;;3102812;28;19928;-82
2021/07/07 05:26:44;;;;;;;;;;;22.00;60.00;;;;;;3094934;28;19926;-84
2021/07/07 05:28:16;;;;;;;;;;;22.00;59.90;;;;;;3100678;28;20349;-83
2021/07/07 05:29:48;;;;;;;;;;;21.90;59.70;;;;;;3100871;28;20279;-81
2021/07/07 05:31:19;;;;;;;;;;;21.90;59.80;;;;;;3101235;28;19921;-85
2021/07/07 05:32:50;;;;;;;;;;;21.90;59.80;;;;;;3105298;28;19928;-85
2021/07/07 05:34:21;;;;;;;;;;;21.80;59.90;;;;;;3101930;28;20278;-84
2021/07/07 05:35:53;;;;;;;;;;;21.80;59.90;;;;;;3102264;28;19929;-83
2021/07/07 05:37:24;;;;;;;;;;;21.80;59.90;;;;;;3101763;28;19964;-84
2021/07/07 05:38:56;;;;;;;;;;;21.80;60.00;;;;;;3102160;28;20016;-83
2021/07/07 05:40:27;;;;;;;;;;;21.70;60.00;;;;;;3099304;28;19921;-84
2021/07/07 05:41:58;;;;;;;;;;;21.80;60.10;;;;;;3108595;28;19937;-82
2021/07/07 05:43:31;;;;;;;;;;;21.70;60.10;;;;;;3107806;28;19926;-85
2021/07/07 05:45:02;;;;;;;;;;;21.70;60.10;;;;;;3098871;28;19928;-83
2021/07/07 05:46:34;;;;;;;;;;;21.70;60.10;;;;;;3112388;28;19952;-84
2021/07/07 05:48:06;;;;;;;;;;;21.70;60.30;;;;;;3102031;28;19929;-83
2021/07/07 05:49:38;;;;;;;;;;;21.70;60.20;;;;;;3102495;28;20430;-83
2021/07/07 05:51:09;;;;;;;;;;;21.70;60.30;;;;;;3105059;28;20313;-84
2021/07/07 05:52:40;;;;;;;;;;;21.70;60.30;;;;;;3106288;28;19957;-83
2021/07/07 05:54:11;;;;;;;;;;;21.60;60.40;;;;;;3109091;28;19921;-83
2021/07/07 05:55:43;;;;;;;;;;;21.70;60.40;;;;;;3108307;28;19968;-82
2021/07/07 05:57:13;;;;;;;;;;;21.70;60.40;;;;;;3104246;28;19996;-82
2021/07/07 05:58:46;;;;;;;;;;;21.70;60.60;;;;;;3097910;28;20048;-83
2021/07/07 06:00:18;;;;;;;;;;;21.70;60.60;;;;;;3100411;28;19967;-83
2021/07/07 06:01:50;;;;;;;;;;;21.70;60.50;;;;;;3100411;28;19941;-83
2021/07/07 06:03:21;;;;;;;;;;;21.60;60.40;;;;;;3100245;28;19995;-83
2021/07/07 06:04:52;;;;;;;;;;;21.60;60.50;;;;;;3096526;28;19960;-82
2021/07/07 06:06:23;;;;;;;;;;;21.60;60.70;;;;;;3096080;28;19918;-82
2021/07/07 06:07:55;;;;;;;;;;;21.60;60.80;;;;;;3102140;28;19973;-83
2021/07/07 06:09:26;;;;;;;;;;;21.60;61.20;;;;;;3106797;28;19921;-83
2021/07/07 06:10:57;;;;;;;;;;;21.60;61.20;;;;;;3104639;28;19925;-83
2021/07/07 06:12:28;;;;;;;;;;;21.60;61.20;;;;;;3101565;28;19954;-82
2021/07/07 06:14:00;;;;;;;;;;;21.60;61.20;;;;;;3103527;28;19917;-83
2021/07/07 06:15:36;;;;;;;;;;;21.60;61.20;;;;;;3106975;28;20363;-83
2021/07/07 06:17:06;;;;;;;;;;;21.60;61.20;;;;;;3112102;28;20008;-81
2021/07/07 06:18:38;;;;;;;;;;;21.60;61.40;;;;;;3113267;28;19917;-81
2021/07/07 06:20:09;;;;;;;;;;;21.60;61.40;;;;;;3112026;28;19929;-81
2021/07/07 06:21:41;;;;;;;;;;;21.60;61.40;;;;;;3111018;28;19922;-81
2021/07/07 06:23:12;;;;;;;;;;;21.60;61.50;;;;;;3104941;28;20404;-82
2021/07/07 06:24:43;;;;;;;;;;;21.60;61.50;;;;;;3107802;28;19969;-83
2021/07/07 06:26:14;;;;;;;;;;;21.60;61.60;;;;;;3094347;28;19928;-80
2021/07/07 06:27:45;;;;;;;;;;;21.60;61.60;;;;;;3096251;28;19969;-82
2021/07/07 06:29:17;;;;;;;;;;;21.60;61.30;;;;;;3096919;28;19977;-79
2021/07/07 06:30:49;;;;;;;;;;;21.50;61.30;;;;;;3094970;28;19922;-84
2021/07/07 06:32:19;;;;;;;;;;;21.50;61.40;;;;;;3108385;28;19972;-83
2021/07/07 06:33:51;;;;;;;;;;;21.50;61.40;;;;;;3109583;28;20309;-85
2021/07/07 06:35:22;;;;;;;;;;;21.50;61.40;;;;;;3114042;28;20302;-83
2021/07/07 06:36:53;;;;;;;;;;;21.50;61.40;;;;;;3110256;28;19972;-85
2021/07/07 06:38:24;;;;;;;;;;;21.50;61.40;;;;;;3101499;28;20017;-84
2021/07/07 06:39:56;;;;;;;;;;;21.50;61.40;;;;;;3101638;28;19921;-84
2021/07/07 06:41:27;;;;;;;;;;;21.50;61.50;;;;;;3101651;28;19928;-82
2021/07/07 06:42:59;;;;;;;;;;;21.40;61.50;;;;;;3101046;28;20397;-83
2021/07/07 06:44:31;;;;;;;;;;;21.40;61.40;;;;;;3103284;28;19933;-83
2021/07/07 06:46:02;;;;;;;;;;;21.40;61.40;;;;;;3101489;28;19950;-80
2021/07/07 06:47:33;;;;;;;;;;;21.50;61.40;;;;;;3100946;28;19929;-79
2021/07/07 06:49:04;;;;;;;;;;;21.50;61.40;;;;;;3100733;28;19922;-79
2021/07/07 06:50:36;;;;;;;;;;;21.50;61.40;;;;;;3100538;28;19922;-79
2021/07/07 06:52:09;;;;;;;;;;;21.40;61.40;;;;;;3096566;28;19961;-79
2021/07/07 06:53:41;;;;;;;;;;;21.50;61.50;;;;;;3088588;28;19926;-81
2021/07/07 06:55:12;;;;;;;;;;;21.40;61.50;;;;;;3089756;28;19969;-79
2021/07/07 06:56:44;;;;;;;;;;;21.40;61.60;;;;;;3101374;28;19968;-79
2021/07/07 06:58:15;;;;;;;;;;;21.40;61.70;;;;;;3102253;28;20408;-80
2021/07/07 06:59:47;;;;;;;;;;;21.50;61.70;;;;;;3098425;28;20389;-79
2021/07/07 07:01:19;;;;;;;;;;;21.50;61.70;;;;;;3090001;28;20371;-80
2021/07/07 07:02:50;;;;;;;;;;;21.50;61.70;;;;;;3089989;28;20362;-79
2021/07/07 07:04:22;;;;;;;;;;;21.50;61.80;;;;;;3090590;28;19929;-79
2021/07/07 07:05:53;;;;;;;;;;;21.50;61.80;;;;;;3093195;28;19922;-80
2021/07/07 07:07:24;;;;;;;;;;;21.50;61.80;;;;;;3102482;28;19922;-80
2021/07/07 07:08:55;;;;;;;;;;;21.60;61.80;;;;;;3100832;28;19917;-81
2021/07/07 07:10:27;;;;;;;;;;;21.60;61.80;;;;;;3102314;28;20393;-80
2021/07/07 07:11:58;;;;;;;;;;;21.60;61.80;;;;;;3101904;28;19972;-80
2021/07/07 07:13:30;;;;;;;;;;;21.50;61.70;;;;;;3102532;28;19925;-80
2021/07/07 07:15:02;;;;;;;;;;;21.60;61.80;;;;;;3101605;28;19973;-80
2021/07/07 07:16:34;;;;;;;;;;;21.50;61.80;;;;;;3101962;28;19922;-80
2021/07/07 07:18:05;;;;;;;;;;;21.50;61.90;;;;;;3101315;28;20252;-79
2021/07/07 07:19:36;;;;;;;;;;;21.50;61.90;;;;;;3090159;28;21652;-78
2021/07/07 07:21:07;;;;;;;;;;;21.50;61.90;;;;;;3095157;28;20397;-79
2021/07/07 07:22:39;;;;;;;;;;;21.50;61.80;;;;;;3095911;28;19922;-79
2021/07/07 07:24:10;;;;;;;;;;;21.60;61.80;;;;;;3104043;28;19976;-80
2021/07/07 07:25:42;;;;;;;;;;;21.50;61.80;;;;;;3098884;28;19926;-78
2021/07/07 07:27:14;;;;;;;;;;;21.50;61.80;;;;;;3100076;28;20305;-79
2021/07/07 07:28:45;;;;;;;;;;;21.60;61.80;;;;;;3104173;28;19921;-79
2021/07/07 07:30:19;;;;;;;;;;;21.60;61.90;;;;;;3112205;28;20418;-79
2021/07/07 07:31:49;;;;;;;;;;;21.60;61.80;;;;;;3105317;28;20140;-79
2021/07/07 07:33:21;;;;;;;;;;;21.60;61.90;;;;;;3100303;28;19921;-80
2021/07/07 07:34:51;;;;;;;;;;;21.60;61.90;;;;;;3101434;28;19928;-80
2021/07/07 07:36:23;;;;;;;;;;;21.60;61.80;;;;;;3102528;28;19918;-79
2021/07/07 07:38:01;;;;;;;;;;;21.60;61.80;;;;;;3102565;28;19928;-79
2021/07/07 07:39:44;;;;;;;;;;;21.60;61.80;;;;;;3102642;28;19952;-81
2021/07/07 07:41:15;;;;;;;;;;;21.50;61.70;;;;;;3102048;28;20398;-85
2021/07/07 07:42:47;;;;;;;;;;;21.50;62.10;;;;;;3101584;28;19922;-78
2021/07/07 07:44:18;;;;;;;;;;;21.60;62.00;;;;;;3101173;28;19926;-79
2021/07/07 07:45:50;;;;;;;;;;;21.60;61.90;;;;;;3101277;28;19965;-79
2021/07/07 07:47:22;;;;;;;;;;;21.60;61.90;;;;;;3097557;28;20009;-79
2021/07/07 07:48:56;;;;;;;;;;;21.60;61.90;;;;;;3093160;28;19958;-78
2021/07/07 07:50:34;;;;;;;;;;;21.60;61.90;;;;;;3098871;28;19954;-78
2021/07/07 07:52:08;;;;;;;;;;;21.60;61.80;;;;;;3099281;28;19930;-80
2021/07/07 07:53:39;;;;;;;;;;;21.50;61.60;;;;;;3095596;28;20274;-78
2021/07/07 07:55:11;;;;;;;;;;;21.50;61.60;;;;;;3093810;28;19965;-78
2021/07/07 07:56:42;;;;;;;;;;;21.60;61.50;;;;;;3096898;28;19956;-79
2021/07/07 07:58:17;;;;;;;;;;;21.60;61.50;;;;;;3100809;28;19917;-79
2021/07/07 07:59:48;;;;;;;;;;;21.60;61.50;;;;;;3104419;28;19972;-78
2021/07/07 08:01:20;;;;;;;;;;;21.60;61.40;;;;;;3105581;28;20285;-81
2021/07/07 08:02:52;;;;;;;;;;;21.60;61.30;;;;;;3101203;28;19984;-78
2021/07/07 08:04:22;;;;;;;;;;;21.60;61.60;;;;;;3095831;28;19921;-79
2021/07/07 08:05:54;;;;;;;;;;;21.60;61.60;;;;;;3101761;28;19924;-78
2021/07/07 08:07:28;;;;;;;;;;;21.60;61.50;;;;;;3107531;28;20382;-79
2021/07/07 08:08:59;;;;;;;;;;;21.60;61.50;;;;;;3111281;28;19928;-80
2021/07/07 08:10:30;;;;;;;;;;;21.60;61.40;;;;;;3113072;28;19928;-78
2021/07/07 08:12:02;;;;;;;;;;;21.60;61.30;;;;;;3113305;28;19921;-79
2021/07/07 08:13:34;;;;;;;;;;;21.60;61.40;;;;;;3113471;28;20294;-78
2021/07/07 08:15:05;;;;;;;;;;;21.60;61.40;;;;;;3110276;28;19921;-78
2021/07/07 08:16:38;;;;;;;;;;;21.60;61.50;;;;;;3100740;28;19918;-78
2021/07/07 08:18:09;;;;;;;;;;;21.60;61.50;;;;;;3101213;28;19969;-78
2021/07/07 08:19:40;;;;;;;;;;;21.60;61.50;;;;;;3100915;28;19929;-78
2021/07/07 08:21:11;;;;;;;;;;;21.60;61.50;;;;;;3100757;28;19925;-78
2021/07/07 08:22:42;;;;;;;;;;;21.60;61.30;;;;;;3105835;28;19968;-78
2021/07/07 08:24:13;;;;;;;;;;;21.60;61.20;;;;;;3111338;28;20562;-79
2021/07/07 08:25:46;;;;;;;;;;;21.60;61.20;;;;;;3105173;28;19930;-79
2021/07/07 08:27:17;;;;;;;;;;;21.60;61.20;;;;;;3092760;28;19972;-79
2021/07/07 08:28:49;;;;;;;;;;;21.60;61.20;;;;;;3108761;28;20381;-81
2021/07/07 08:30:19;;;;;;;;;;;21.60;61.30;;;;;;3105145;28;20024;-78
2021/07/07 08:31:52;;;;;;;;;;;21.60;61.40;;;;;;3113411;28;19921;-78
2021/07/07 08:33:24;;;;;;;;;;;21.70;61.50;;;;;;3101018;28;19922;-78
2021/07/07 08:34:55;;;;;;;;;;;21.70;61.40;;;;;;3096625;28;19976;-79
2021/07/07 08:36:27;;;;;;;;;;;21.60;61.30;;;;;;3107440;28;19922;-80
2021/07/07 08:37:58;;;;;;;;;;;21.60;61.30;;;;;;3111307;28;19921;-78
2021/07/07 08:39:29;;;;;;;;;;;21.70;62.30;;;;;;3107799;28;19921;-78
2021/07/07 08:41:01;;;;;;;;;;;21.80;62.60;;;;;;3104387;28;20405;-79
2021/07/07 08:42:34;;;;;;;;;;;21.80;62.30;;;;;;3108753;28;19969;-79
2021/07/07 08:44:07;;;;;;;;;;;21.80;62.20;;;;;;3101277;28;19922;-79
2021/07/07 08:45:38;;;;;;;;;;;21.80;62.30;;;;;;3101421;28;20051;-78
2021/07/07 08:47:10;;;;;;;;;;;21.80;62.20;;;;;;3100955;28;19922;-78
2021/07/07 08:48:42;;;;;;;;;;;21.90;62.40;;;;;;3101431;28;19973;-78
2021/07/07 08:50:14;;;;;;;;;;;21.90;62.20;;;;;;3095405;28;19929;-78
2021/07/07 08:51:45;;;;;;;;;;;21.90;62.60;;;;;;3108678;28;19932;-78
2021/07/07 08:53:18;;;;;;;;;;;21.90;62.60;;;;;;3104775;28;20390;-78
2021/07/07 08:54:48;;;;;;;;;;;21.90;62.70;;;;;;3105036;28;20021;-79
2021/07/07 08:56:20;;;;;;;;;;;22.00;62.50;;;;;;3113389;28;19924;-79
2021/07/07 08:57:51;;;;;;;;;;;22.00;62.30;;;;;;3113780;28;19930;-79
2021/07/07 08:59:24;;;;;;;;;;;22.00;62.50;;;;;;3113933;28;19921;-79